createdAt,value
2022-10-19T00:01:27.126Z,12.24
2022-10-19T00:05:23.507Z,12.19
2022-10-19T00:08:44.685Z,12.18
2022-10-19T00:12:21.815Z,12.14
2022-10-19T00:16:19.309Z,12.10
2022-10-19T00:19:58.658Z,12.09
2022-10-19T00:23:38.574Z,12.06
2022-10-19T00:26:59.298Z,12.03
2022-10-19T00:30:56.778Z,12.01
2022-10-19T00:34:18.297Z,11.98
2022-10-19T00:37:55.174Z,11.98
2022-10-19T00:41:35.764Z,11.97
2022-10-19T00:45:29.469Z,11.98
2022-10-19T00:49:33.072Z,12.01
2022-10-19T00:53:12.810Z,11.98
2022-10-19T00:56:35.122Z,11.97
2022-10-19T01:00:11.866Z,11.94
2022-10-19T01:03:49.282Z,11.89
2022-10-19T01:07:27.838Z,11.85
2022-10-19T01:11:11.903Z,11.82
2022-10-19T01:15:13.727Z,11.82
2022-10-19T01:18:45.860Z,11.80
2022-10-19T01:22:41.599Z,11.75
2022-10-19T01:26:53.921Z,11.74
2022-10-19T01:30:52.466Z,11.71
2022-10-19T01:34:55.081Z,11.67
2022-10-19T01:38:34.362Z,11.67
2022-10-19T01:42:34.755Z,11.67
2022-10-19T01:46:30.362Z,11.70
2022-10-19T01:49:59.943Z,11.69
2022-10-19T01:53:40.869Z,11.66
2022-10-19T01:57:32.911Z,11.64
2022-10-19T02:00:55.924Z,11.59
2022-10-19T02:04:32.818Z,11.56
2022-10-19T02:08:14.046Z,11.49
2022-10-19T02:12:09.551Z,11.47
2022-10-19T02:15:52.942Z,11.47
2022-10-19T02:19:33.193Z,11.48
2022-10-19T02:22:53.956Z,11.48
2022-10-19T02:26:32.302Z,11.50
2022-10-19T02:30:13.345Z,11.50
2022-10-19T02:33:47.132Z,11.52
2022-10-19T02:37:25.685Z,11.54
2022-10-19T02:41:41.632Z,11.54
2022-10-19T02:45:05.233Z,11.54
2022-10-19T02:49:01.471Z,11.46
2022-10-19T02:52:22.382Z,11.36
2022-10-19T02:55:59.955Z,11.30
2022-10-19T02:59:37.631Z,11.29
2022-10-19T03:03:15.386Z,11.25
2022-10-19T03:06:53.020Z,11.18
2022-10-19T03:10:30.759Z,11.14
2022-10-19T03:14:08.430Z,11.10
2022-10-19T03:17:46.066Z,11.06
2022-10-19T03:21:23.806Z,11.00
2022-10-19T03:25:01.463Z,10.95
2022-10-19T03:28:59.022Z,10.95
2022-10-19T03:32:19.972Z,11.00
2022-10-19T03:36:19.767Z,11.04
2022-10-19T03:40:00.207Z,11.02
2022-10-19T03:43:20.722Z,11.02
2022-10-19T03:46:58.551Z,11.02
2022-10-19T03:51:00.683Z,11.06
2022-10-19T03:54:24.964Z,11.04
2022-10-19T03:57:59.222Z,10.97
2022-10-19T04:01:39.838Z,10.90
2022-10-19T04:05:14.797Z,10.81
2022-10-19T04:08:53.285Z,10.74
2022-10-19T04:12:30.004Z,10.68
2022-10-19T04:16:09.584Z,10.61
2022-10-19T04:19:45.253Z,10.56
2022-10-19T04:23:41.686Z,10.51
2022-10-19T04:27:02.267Z,10.50
2022-10-19T04:30:39.831Z,10.45
2022-10-19T04:34:39.211Z,10.39
2022-10-19T04:38:01.414Z,10.33
2022-10-19T04:41:39.495Z,10.27
2022-10-19T04:45:16.937Z,10.24
2022-10-19T04:49:16.420Z,10.25
2022-10-19T04:52:40.368Z,10.17
2022-10-19T04:56:21.116Z,10.15
2022-10-19T04:59:55.722Z,10.10
2022-10-19T05:03:33.358Z,10.02
2022-10-19T05:07:11.237Z,9.94
2022-10-19T05:10:48.764Z,9.92
2022-10-19T05:18:23.109Z,9.87
2022-10-19T05:21:43.855Z,9.78
2022-10-19T05:25:40.827Z,9.68
2022-10-19T05:29:02.956Z,9.58
2022-10-19T05:32:57.680Z,9.51
2022-10-19T05:36:21.081Z,9.47
2022-10-19T05:39:55.767Z,9.48
2022-10-19T05:44:00.170Z,9.49
2022-10-19T05:47:39.569Z,9.54
2022-10-19T05:51:20.611Z,9.59
2022-10-19T05:54:41.355Z,9.61
2022-10-19T05:58:19.145Z,9.62
2022-10-19T06:01:56.869Z,9.60
2022-10-19T06:05:36.793Z,9.61
2022-10-19T06:09:35.346Z,9.66
2022-10-19T06:13:15.928Z,9.71
2022-10-19T06:16:36.589Z,9.73
2022-10-19T06:20:14.622Z,9.74
2022-10-19T06:24:11.127Z,9.75
2022-10-19T06:27:32.271Z,9.79
2022-10-19T06:31:30.626Z,9.87
2022-10-19T06:34:56.350Z,9.99
2022-10-19T06:38:29.061Z,10.07
2022-10-19T06:42:06.739Z,10.14
2022-10-19T06:45:44.535Z,10.17
2022-10-19T06:49:22.919Z,10.20
2022-10-19T06:52:59.985Z,10.22
2022-10-19T06:56:37.509Z,10.22
2022-10-19T07:00:34.153Z,10.22
2022-10-19T07:03:55.485Z,10.25
2022-10-19T07:07:32.989Z,10.27
2022-10-19T07:11:29.320Z,10.30
2022-10-19T07:14:51.314Z,10.34
2022-10-19T07:18:47.004Z,10.37
2022-10-19T07:22:07.691Z,10.35
2022-10-19T07:25:45.239Z,10.37
2022-10-19T07:29:23.443Z,10.36
2022-10-19T07:33:19.358Z,10.39
2022-10-19T07:36:45.131Z,10.43
2022-10-19T07:40:17.978Z,10.44
2022-10-19T07:43:57.841Z,10.40
2022-10-19T07:47:34.548Z,10.37
2022-10-19T07:51:13.049Z,10.38
2022-10-19T07:54:49.781Z,10.40
2022-10-19T07:58:45.734Z,10.46
2022-10-19T08:02:14.228Z,10.53
2022-10-19T08:05:44.321Z,10.57
2022-10-19T08:09:52.890Z,10.58
2022-10-19T08:13:33.917Z,10.58
2022-10-19T08:16:54.605Z,10.63
2022-10-19T08:20:32.762Z,10.63
2022-10-19T08:24:11.694Z,10.60
2022-10-19T08:27:47.930Z,10.55
2022-10-19T08:31:25.254Z,10.54
2022-10-19T08:35:22.000Z,10.56
2022-10-19T08:38:44.967Z,10.52
2022-10-19T08:42:28.592Z,10.46
2022-10-19T08:46:14.209Z,10.45
2022-10-19T08:49:36.485Z,10.49
2022-10-19T08:53:43.516Z,10.53
2022-10-19T08:57:07.357Z,10.60
2022-10-19T09:00:47.427Z,10.68
2022-10-19T09:04:47.150Z,10.71
2022-10-19T09:08:13.094Z,10.74
2022-10-19T09:11:49.471Z,10.75
2022-10-19T09:15:46.595Z,10.76
2022-10-19T09:19:30.282Z,10.77
2022-10-19T09:23:20.769Z,10.79
2022-10-19T09:27:03.363Z,10.79
2022-10-19T09:30:30.116Z,10.81
2022-10-19T09:34:06.896Z,10.82
2022-10-19T09:37:45.680Z,10.81
2022-10-19T09:41:43.308Z,10.83
2022-10-19T09:45:29.051Z,10.79
2022-10-19T09:49:08.245Z,10.78
2022-10-19T09:53:15.381Z,10.84
2022-10-19T09:56:56.732Z,10.93
2022-10-19T10:00:23.104Z,11.02
2022-10-19T10:04:16.598Z,11.20
2022-10-19T10:07:56.014Z,11.34
2022-10-19T10:11:37.642Z,11.44
2022-10-19T10:14:58.398Z,11.49
2022-10-19T10:18:58.186Z,11.53
2022-10-19T10:22:33.112Z,11.60
2022-10-19T10:25:58.248Z,11.61
2022-10-19T10:29:36.780Z,11.63
2022-10-19T10:33:27.111Z,11.58
2022-10-19T10:36:59.993Z,11.50
2022-10-19T10:40:39.121Z,11.35
2022-10-19T10:44:20.908Z,11.28
2022-10-19T10:47:53.634Z,11.25
2022-10-19T10:51:35.287Z,11.28
2022-10-19T10:55:11.252Z,11.22
2022-10-19T10:58:57.057Z,11.16
2022-10-19T11:02:55.671Z,11.04
2022-10-19T11:06:44.401Z,10.95
2022-10-19T11:10:33.599Z,10.93
2022-10-19T11:14:49.413Z,11.01
2022-10-19T11:18:46.432Z,11.08
2022-10-19T11:22:26.251Z,11.11
2022-10-19T11:26:23.125Z,11.13
2022-10-19T11:30:05.941Z,11.17
2022-10-19T11:34:48.426Z,11.15
2022-10-19T11:38:24.159Z,11.11
2022-10-19T11:42:43.451Z,11.05
2022-10-19T11:46:32.037Z,10.94
2022-10-19T11:50:34.613Z,10.88
2022-10-19T11:54:53.901Z,10.83
2022-10-19T11:58:50.000Z,10.87
2022-10-19T12:02:42.807Z,11.02
2022-10-19T12:06:44.698Z,11.39
2022-10-19T12:10:41.131Z,11.81
2022-10-19T12:14:46.251Z,12.18
2022-10-19T12:18:48.800Z,12.49
2022-10-19T12:22:21.119Z,12.69
2022-10-19T12:25:53.229Z,12.64
2022-10-19T12:29:29.882Z,12.37
2022-10-19T12:33:44.899Z,12.08
2022-10-19T12:37:26.565Z,11.81
2022-10-19T12:41:02.120Z,11.72
2022-10-19T12:44:58.656Z,11.73
2022-10-19T12:48:44.772Z,11.83
2022-10-19T12:52:08.320Z,11.91
2022-10-19T12:56:31.547Z,11.89
2022-10-19T13:00:20.480Z,11.88
2022-10-19T13:03:47.346Z,11.82
2022-10-19T13:07:20.712Z,11.73
2022-10-19T13:11:14.835Z,11.70
2022-10-19T13:14:57.571Z,11.72
2022-10-19T13:19:00.036Z,11.73
2022-10-19T13:22:27.939Z,11.70
2022-10-19T13:26:44.582Z,11.63
2022-10-19T13:30:44.120Z,11.49
2022-10-19T13:34:25.311Z,11.35
2022-10-19T13:38:09.197Z,11.12
2022-10-19T13:41:46.143Z,10.87
2022-10-19T13:45:24.671Z,10.74
2022-10-19T13:49:02.407Z,10.70
2022-10-19T13:53:19.535Z,10.75
2022-10-19T13:57:39.827Z,10.76
2022-10-19T14:01:09.015Z,10.76
2022-10-19T14:04:57.004Z,10.76
2022-10-19T14:08:46.284Z,10.78
2022-10-19T14:12:24.827Z,10.73
2022-10-19T14:15:58.038Z,10.70
2022-10-19T14:19:46.824Z,10.66
2022-10-19T14:23:23.450Z,10.61
2022-10-19T14:26:48.562Z,10.54
2022-10-19T14:30:34.172Z,10.52
2022-10-19T14:34:15.014Z,10.52
2022-10-19T14:38:00.517Z,10.51
2022-10-19T14:41:28.304Z,10.48
2022-10-19T14:45:04.081Z,10.43
2022-10-19T14:49:05.341Z,10.38
2022-10-19T14:52:49.165Z,10.36
2022-10-19T15:00:24.115Z,10.37
2022-10-19T15:04:12.772Z,10.38
2022-10-19T15:07:41.292Z,10.36
2022-10-19T15:11:39.963Z,10.34
2022-10-19T15:15:16.769Z,10.30
2022-10-19T15:18:49.279Z,10.27
2022-10-19T15:22:39.694Z,10.25
2022-10-19T15:26:27.780Z,10.23
2022-10-19T15:30:23.515Z,10.18
2022-10-19T15:34:29.033Z,10.12
2022-10-19T15:38:05.697Z,10.08
2022-10-19T15:41:55.558Z,10.04
2022-10-19T15:45:36.393Z,10.02
2022-10-19T15:49:56.514Z,10.02
2022-10-19T15:53:25.210Z,9.99
2022-10-19T15:57:33.248Z,9.95
2022-10-19T16:01:19.594Z,9.91
2022-10-19T16:05:30.389Z,9.89
2022-10-19T16:08:58.717Z,9.88
2022-10-19T16:12:37.438Z,9.86
2022-10-19T16:16:12.234Z,9.78
2022-10-19T16:20:06.109Z,9.69
2022-10-19T16:23:30.509Z,9.54
2022-10-19T16:27:24.450Z,9.45
2022-10-19T16:30:50.947Z,9.41
2022-10-19T16:34:25.690Z,9.42
2022-10-19T16:38:00.839Z,9.39
2022-10-19T16:41:57.168Z,9.38
2022-10-19T16:45:23.891Z,9.35
2022-10-19T16:49:20.488Z,9.33
2022-10-19T16:52:44.226Z,9.32
2022-10-19T16:56:28.185Z,9.30
2022-10-19T17:00:03.006Z,9.30
2022-10-19T17:03:41.328Z,9.29
2022-10-19T17:07:26.066Z,9.26
2022-10-19T17:11:34.923Z,9.25
2022-10-19T17:15:41.427Z,9.21
2022-10-19T17:19:01.734Z,9.16
2022-10-19T17:22:37.495Z,9.11
2022-10-19T17:26:37.832Z,9.07
2022-10-19T17:30:18.406Z,9.05
2022-10-19T17:33:43.674Z,9.06
2022-10-19T17:37:38.750Z,9.09
2022-10-19T17:41:19.303Z,9.13
2022-10-19T17:44:40.260Z,9.14
2022-10-19T17:48:20.244Z,9.11
2022-10-19T17:52:04.270Z,9.09
2022-10-19T17:55:36.910Z,9.02
2022-10-19T17:59:12.378Z,8.90
2022-10-19T18:02:49.197Z,8.83
2022-10-19T18:06:34.730Z,8.82
2022-10-19T18:10:03.947Z,8.77
2022-10-19T18:14:06.335Z,8.75
2022-10-19T18:17:27.915Z,8.70
2022-10-19T18:21:11.464Z,8.62
2022-10-19T18:25:04.809Z,8.57
2022-10-19T18:28:29.255Z,8.49
2022-10-19T18:35:42.369Z,8.43
2022-10-19T18:39:21.106Z,8.39
2022-10-19T18:42:57.728Z,8.36
2022-10-19T18:46:57.881Z,8.30
2022-10-19T18:50:37.656Z,8.23
2022-10-19T18:57:56.111Z,8.08
2022-10-19T19:02:01.395Z,8.01
2022-10-19T19:05:24.009Z,7.94
2022-10-19T19:09:02.283Z,7.89
2022-10-19T19:12:38.787Z,7.87
2022-10-19T19:16:41.586Z,7.81
2022-10-19T19:20:23.493Z,7.73
2022-10-19T19:24:07.110Z,7.66
2022-10-19T19:27:31.581Z,7.63
2022-10-19T19:31:06.900Z,7.62
2022-10-19T19:35:08.974Z,7.67
2022-10-19T19:38:31.149Z,7.66
2022-10-19T19:42:08.953Z,7.56
2022-10-19T19:46:09.200Z,7.39
2022-10-19T19:49:50.911Z,7.21
2022-10-19T19:53:30.875Z,7.01
2022-10-19T19:57:00.549Z,6.77
2022-10-19T20:00:55.165Z,6.56
2022-10-19T20:04:41.829Z,6.37
2022-10-19T20:08:06.451Z,6.19
2022-10-19T20:11:42.604Z,6.08
2022-10-19T20:15:19.007Z,6.01
2022-10-19T20:19:05.481Z,5.98
2022-10-19T20:22:59.376Z,5.98
2022-10-19T20:26:41.726Z,5.94
2022-10-19T20:30:24.085Z,5.86
2022-10-19T20:34:12.506Z,5.73
2022-10-19T20:37:52.262Z,5.60
2022-10-19T20:41:35.356Z,5.51
2022-10-19T20:44:59.081Z,5.49
2022-10-19T20:48:59.181Z,5.49
2022-10-19T20:52:38.943Z,5.45
2022-10-19T20:56:29.537Z,5.36
2022-10-19T20:59:50.580Z,5.30
2022-10-19T21:03:28.708Z,5.23
2022-10-19T21:07:25.877Z,5.12
2022-10-19T21:11:37.481Z,5.01
2022-10-19T21:14:59.327Z,4.98
2022-10-19T21:18:37.434Z,4.92
2022-10-19T21:22:14.599Z,4.88
2022-10-19T21:26:17.128Z,4.87
2022-10-19T21:29:56.574Z,4.81
2022-10-19T21:33:36.050Z,4.68
2022-10-19T21:37:04.925Z,4.54
2022-10-19T21:40:39.507Z,4.46
2022-10-19T21:44:35.875Z,4.37
2022-10-19T21:47:56.620Z,4.26
2022-10-19T21:51:44.780Z,4.15
2022-10-19T21:55:34.542Z,4.05
2022-10-19T21:59:14.742Z,3.92
2022-10-19T22:02:36.089Z,3.78
2022-10-19T22:06:15.764Z,3.65
2022-10-19T22:10:00.768Z,3.52
2022-10-19T22:13:35.521Z,3.40
2022-10-19T22:17:08.953Z,3.34
2022-10-19T22:21:14.925Z,3.31
2022-10-19T22:24:54.821Z,3.24
2022-10-19T22:28:18.000Z,3.18
2022-10-19T22:31:53.140Z,3.10
2022-10-19T22:35:30.637Z,3.02
2022-10-19T22:39:29.337Z,2.94
2022-10-19T22:42:50.113Z,2.94
2022-10-19T22:46:27.919Z,3.00
2022-10-19T22:50:06.882Z,3.08
2022-10-19T22:53:43.232Z,3.20
2022-10-19T22:57:22.827Z,3.26
2022-10-19T23:01:17.341Z,3.29
2022-10-19T23:04:38.350Z,3.31
2022-10-19T23:08:16.254Z,3.34
2022-10-19T23:11:56.178Z,3.36
2022-10-19T23:15:51.020Z,3.33
2022-10-19T23:19:12.058Z,3.27
2022-10-19T23:23:08.396Z,3.19
2022-10-19T23:26:28.968Z,3.07
2022-10-19T23:30:26.558Z,3.01
2022-10-19T23:33:51.147Z,2.93
2022-10-19T23:37:25.773Z,2.88
2022-10-19T23:41:03.674Z,2.79
2022-10-19T23:44:40.527Z,2.74
2022-10-19T23:48:18.271Z,2.65
2022-10-19T23:51:55.826Z,2.57
2022-10-19T23:55:33.435Z,2.44
2022-10-19T23:59:11.177Z,2.33
